sensor_id;sensor_type;location;lat;lon;timestamp;pressure;altitude;pressure_sealevel;temperature;humidity
53506;BME280;39388;50.936;6.848;2022-11-20T00:02:07;100643.53;;;5.67;76.37
53506;BME280;39388;50.936;6.848;2022-11-20T00:04:37;100643.53;;;5.67;76.82
53506;BME280;39388;50.936;6.848;2022-11-20T00:07:07;100639.25;;;5.67;76.15
53506;BME280;39388;50.936;6.848;2022-11-20T00:09:37;100637.53;;;5.66;76.36
53506;BME280;39388;50.936;6.848;2022-11-20T00:12:07;100631.59;;;5.66;76.72
53506;BME280;39388;50.936;6.848;2022-11-20T00:14:38;100639.22;;;5.64;76.73
53506;BME280;39388;50.936;6.848;2022-11-20T00:17:08;100636.69;;;5.66;76.55
53506;BME280;39388;50.936;6.848;2022-11-20T00:19:39;100639.25;;;5.66;77.24
53506;BME280;39388;50.936;6.848;2022-11-20T00:22:09;100639.25;;;5.67;76.68
53506;BME280;39388;50.936;6.848;2022-11-20T00:24:39;100636.72;;;5.67;76.03
53506;BME280;39388;50.936;6.848;2022-11-20T00:27:09;100636.69;;;5.66;76.23
53506;BME280;39388;50.936;6.848;2022-11-20T00:29:39;100636.72;;;5.67;77.26
53506;BME280;39388;50.936;6.848;2022-11-20T00:32:10;100637.59;;;5.70;76.63
53506;BME280;39388;50.936;6.848;2022-11-20T00:34:40;100629.94;;;5.71;76.45
53506;BME280;39388;50.936;6.848;2022-11-20T00:37:10;100627.38;;;5.71;76.01
53506;BME280;39388;50.936;6.848;2022-11-20T00:39:40;100629.91;;;5.68;77.18
53506;BME280;39388;50.936;6.848;2022-11-20T00:42:11;100635.88;;;5.67;76.85
53506;BME280;39388;50.936;6.848;2022-11-20T00:44:41;100627.31;;;5.66;76.47
53506;BME280;39388;50.936;6.848;2022-11-20T00:47:11;100628.16;;;5.65;76.51
53506;BME280;39388;50.936;6.848;2022-11-20T00:49:41;100629.88;;;5.66;76.53
53506;BME280;39388;50.936;6.848;2022-11-20T00:52:12;100644.41;;;5.69;76.64
53506;BME280;39388;50.936;6.848;2022-11-20T00:54:42;100641.88;;;5.69;76.48
53506;BME280;39388;50.936;6.848;2022-11-20T00:57:12;100650.34;;;5.66;76.58
53506;BME280;39388;50.936;6.848;2022-11-20T00:59:42;100637.53;;;5.66;75.91
53506;BME280;39388;50.936;6.848;2022-11-20T01:02:13;100644.38;;;5.66;76.97
53506;BME280;39388;50.936;6.848;2022-11-20T01:04:45;100640.94;;;5.65;76.59
53506;BME280;39388;50.936;6.848;2022-11-20T01:07:15;100636.69;;;5.66;76.30
53506;BME280;39388;50.936;6.848;2022-11-20T01:09:45;100634.94;;;5.63;76.62
53506;BME280;39388;50.936;6.848;2022-11-20T01:12:18;100634.94;;;5.63;76.43
53506;BME280;39388;50.936;6.848;2022-11-20T01:14:51;100635.81;;;5.64;77.11
53506;BME280;39388;50.936;6.848;2022-11-20T01:17:22;100625.56;;;5.64;76.20
53506;BME280;39388;50.936;6.848;2022-11-20T01:19:52;100631.53;;;5.64;76.44
53506;BME280;39388;50.936;6.848;2022-11-20T01:22:22;100628.16;;;5.65;76.41
53506;BME280;39388;50.936;6.848;2022-11-20T01:24:52;100621.34;;;5.66;76.45
53506;BME280;39388;50.936;6.848;2022-11-20T01:27:23;100622.19;;;5.66;76.02
53506;BME280;39388;50.936;6.848;2022-11-20T01:29:53;100629.88;;;5.66;76.50
53506;BME280;39388;50.936;6.848;2022-11-20T01:32:23;100626.47;;;5.67;76.22
53506;BME280;39388;50.936;6.848;2022-11-20T01:34:53;100629.03;;;5.67;76.36
53506;BME280;39388;50.936;6.848;2022-11-20T01:37:24;100622.19;;;5.65;76.12
53506;BME280;39388;50.936;6.848;2022-11-20T01:39:54;100623.88;;;5.64;75.85
53506;BME280;39388;50.936;6.848;2022-11-20T01:42:24;100620.47;;;5.64;76.32
53506;BME280;39388;50.936;6.848;2022-11-20T01:48:10;100611.91;;;5.60;76.45
53506;BME280;39388;50.936;6.848;2022-11-20T01:50:40;100608.44;;;5.58;77.02
53506;BME280;39388;50.936;6.848;2022-11-20T01:53:12;100606.72;;;5.57;76.12
53506;BME280;39388;50.936;6.848;2022-11-20T01:55:49;100597.31;;;5.55;76.29
53506;BME280;39388;50.936;6.848;2022-11-20T01:58:20;100579.38;;;5.53;76.55
53506;BME280;39388;50.936;6.848;2022-11-20T02:00:52;100575.09;;;5.50;76.97
53506;BME280;39388;50.936;6.848;2022-11-20T02:03:22;100586.13;;;5.48;76.38
53506;BME280;39388;50.936;6.848;2022-11-20T02:08:29;100593.84;;;5.49;76.24
53506;BME280;39388;50.936;6.848;2022-11-20T02:11:00;100597.28;;;5.51;76.24
53506;BME280;39388;50.936;6.848;2022-11-20T02:13:30;100589.59;;;5.51;76.23
53506;BME280;39388;50.936;6.848;2022-11-20T02:18:52;100597.28;;;5.53;76.43
53506;BME280;39388;50.936;6.848;2022-11-20T02:26:24;100593.88;;;5.52;76.56
53506;BME280;39388;50.936;6.848;2022-11-20T02:28:56;100587.94;;;5.53;76.43
53506;BME280;39388;50.936;6.848;2022-11-20T02:31:28;100581.97;;;5.55;76.16
53506;BME280;39388;50.936;6.848;2022-11-20T02:33:58;100578.53;;;5.54;76.60
53506;BME280;39388;50.936;6.848;2022-11-20T02:36:28;100582.81;;;5.53;76.75
53506;BME280;39388;50.936;6.848;2022-11-20T02:39:02;100575.97;;;5.52;76.43
53506;BME280;39388;50.936;6.848;2022-11-20T02:41:35;100576.81;;;5.53;76.42
53506;BME280;39388;50.936;6.848;2022-11-20T02:44:05;100584.50;;;5.51;76.65
53506;BME280;39388;50.936;6.848;2022-11-20T02:46:36;100583.59;;;5.49;76.29
53506;BME280;39388;50.936;6.848;2022-11-20T02:49:06;100577.66;;;5.50;76.59
53506;BME280;39388;50.936;6.848;2022-11-20T02:51:36;100590.44;;;5.50;76.71
53506;BME280;39388;50.936;6.848;2022-11-20T02:54:07;100581.09;;;5.52;76.68
53506;BME280;39388;50.936;6.848;2022-11-20T02:56:37;100584.53;;;5.55;75.83
53506;BME280;39388;50.936;6.848;2022-11-20T02:59:08;100582.84;;;5.57;76.15
53506;BME280;39388;50.936;6.848;2022-11-20T03:01:38;100583.66;;;5.56;76.51
53506;BME280;39388;50.936;6.848;2022-11-20T03:04:08;100576.81;;;5.53;76.95
53506;BME280;39388;50.936;6.848;2022-11-20T03:06:39;100573.44;;;5.52;76.74
53506;BME280;39388;50.936;6.848;2022-11-20T03:09:09;100575.16;;;5.53;76.60
53506;BME280;39388;50.936;6.848;2022-11-20T03:11:39;100568.28;;;5.51;76.10
53506;BME280;39388;50.936;6.848;2022-11-20T03:14:09;100576.78;;;5.48;75.66
53506;BME280;39388;50.936;6.848;2022-11-20T03:16:40;100570.81;;;5.49;76.46
53506;BME280;39388;50.936;6.848;2022-11-20T03:19:11;100569.94;;;5.46;76.78
53506;BME280;39388;50.936;6.848;2022-11-20T03:21:41;100577.56;;;5.44;76.16
53506;BME280;39388;50.936;6.848;2022-11-20T03:24:12;100566.44;;;5.42;76.00
53506;BME280;39388;50.936;6.848;2022-11-20T03:26:42;100560.47;;;5.40;76.96
53506;BME280;39388;50.936;6.848;2022-11-20T03:29:12;100566.38;;;5.37;76.10
53506;BME280;39388;50.936;6.848;2022-11-20T03:31:42;100573.25;;;5.40;76.69
53506;BME280;39388;50.936;6.848;2022-11-20T03:34:13;100571.53;;;5.41;76.50
53506;BME280;39388;50.936;6.848;2022-11-20T03:36:43;100567.22;;;5.36;75.97
53506;BME280;39388;50.936;6.848;2022-11-20T03:39:13;100563.81;;;5.36;76.39
53506;BME280;39388;50.936;6.848;2022-11-20T03:41:44;100564.72;;;5.38;76.78
53506;BME280;39388;50.936;6.848;2022-11-20T03:44:14;100561.31;;;5.41;76.39
53506;BME280;39388;50.936;6.848;2022-11-20T03:46:45;100560.50;;;5.43;76.52
53506;BME280;39388;50.936;6.848;2022-11-20T03:49:15;100556.22;;;5.42;76.63
53506;BME280;39388;50.936;6.848;2022-11-20T03:51:45;100557.03;;;5.40;76.53
53506;BME280;39388;50.936;6.848;2022-11-20T03:54:15;100539.91;;;5.32;76.23
53506;BME280;39388;50.936;6.848;2022-11-20T03:56:45;100551.09;;;5.41;76.39
53506;BME280;39388;50.936;6.848;2022-11-20T03:59:16;100551.94;;;5.40;76.10
53506;BME280;39388;50.936;6.848;2022-11-20T04:01:46;100545.94;;;5.37;76.34
53506;BME280;39388;50.936;6.848;2022-11-20T04:04:16;100542.50;;;5.35;75.82
53506;BME280;39388;50.936;6.848;2022-11-20T04:06:47;100551.88;;;5.33;76.03
53506;BME280;39388;50.936;6.848;2022-11-20T04:09:17;100537.31;;;5.31;76.97
53506;BME280;39388;50.936;6.848;2022-11-20T04:11:47;100540.69;;;5.28;76.11
53506;BME280;39388;50.936;6.848;2022-11-20T04:14:17;100540.66;;;5.25;76.51
53506;BME280;39388;50.936;6.848;2022-11-20T04:16:47;100540.59;;;5.22;76.60
53506;BME280;39388;50.936;6.848;2022-11-20T04:19:18;100525.25;;;5.19;76.15
53506;BME280;39388;50.936;6.848;2022-11-20T04:21:48;100520.94;;;5.16;76.53
53506;BME280;39388;50.936;6.848;2022-11-20T04:24:18;100532.81;;;5.13;76.18
53506;BME280;39388;50.936;6.848;2022-11-20T04:26:48;100531.94;;;5.12;77.25
53506;BME280;39388;50.936;6.848;2022-11-20T04:29:19;100544.72;;;5.11;76.87
53506;BME280;39388;50.936;6.848;2022-11-20T04:31:49;100552.38;;;5.09;76.42
53506;BME280;39388;50.936;6.848;2022-11-20T04:34:19;100547.22;;;5.07;76.50
53506;BME280;39388;50.936;6.848;2022-11-20T04:36:50;100554.84;;;5.04;76.41
53506;BME280;39388;50.936;6.848;2022-11-20T04:39:20;100548.84;;;5.02;76.47
53506;BME280;39388;50.936;6.848;2022-11-20T04:41:50;100552.25;;;5.01;76.77
53506;BME280;39388;50.936;6.848;2022-11-20T04:44:40;100547.16;;;5.03;76.90
53506;BME280;39388;50.936;6.848;2022-11-20T04:47:10;100555.69;;;5.03;76.10
53506;BME280;39388;50.936;6.848;2022-11-20T04:49:41;100556.59;;;5.07;76.50
53506;BME280;39388;50.936;6.848;2022-11-20T04:52:11;100559.16;;;5.09;76.70
53506;BME280;39388;50.936;6.848;2022-11-20T04:54:41;100558.38;;;5.13;76.56
53506;BME280;39388;50.936;6.848;2022-11-20T04:57:12;100560.16;;;5.17;76.82
53506;BME280;39388;50.936;6.848;2022-11-20T04:59:42;100556.78;;;5.21;75.91
53506;BME280;39388;50.936;6.848;2022-11-20T05:02:12;100562.81;;;5.25;76.12
53506;BME280;39388;50.936;6.848;2022-11-20T05:04:43;100554.31;;;5.27;76.02
53506;BME280;39388;50.936;6.848;2022-11-20T05:07:13;100554.31;;;5.29;76.11
53506;BME280;39388;50.936;6.848;2022-11-20T05:09:43;100533.75;;;5.19;76.06
53506;BME280;39388;50.936;6.848;2022-11-20T05:12:14;100553.53;;;5.33;75.77
53506;BME280;39388;50.936;6.848;2022-11-20T05:14:44;100547.59;;;5.32;76.04
53506;BME280;39388;50.936;6.848;2022-11-20T05:17:14;100561.22;;;5.34;75.94
53506;BME280;39388;50.936;6.848;2022-11-20T05:19:45;100563.78;;;5.34;76.24
53506;BME280;39388;50.936;6.848;2022-11-20T05:22:15;100555.25;;;5.34;75.56
53506;BME280;39388;50.936;6.848;2022-11-20T05:24:45;100564.66;;;5.35;76.28
53506;BME280;39388;50.936;6.848;2022-11-20T05:27:15;100553.56;;;5.34;75.63
53506;BME280;39388;50.936;6.848;2022-11-20T05:29:46;100556.97;;;5.33;75.48
53506;BME280;39388;50.936;6.848;2022-11-20T05:32:16;100562.09;;;5.33;75.76
53506;BME280;39388;50.936;6.848;2022-11-20T05:34:46;100560.38;;;5.34;75.78
53506;BME280;39388;50.936;6.848;2022-11-20T05:37:16;100557.88;;;5.37;75.73
53506;BME280;39388;50.936;6.848;2022-11-20T05:39:47;100562.09;;;5.36;75.42
53506;BME280;39388;50.936;6.848;2022-11-20T05:42:17;100563.78;;;5.34;75.69
53506;BME280;39388;50.936;6.848;2022-11-20T05:45:03;100561.22;;;5.34;75.53
53506;BME280;39388;50.936;6.848;2022-11-20T05:47:34;100559.53;;;5.33;76.37
53506;BME280;39388;50.936;6.848;2022-11-20T05:50:04;100551.88;;;5.33;75.65
53506;BME280;39388;50.936;6.848;2022-11-20T05:52:35;100552.72;;;5.34;76.08
53506;BME280;39388;50.936;6.848;2022-11-20T05:55:05;100552.72;;;5.35;75.60
53506;BME280;39388;50.936;6.848;2022-11-20T05:57:36;100548.50;;;5.37;75.82
53506;BME280;39388;50.936;6.848;2022-11-20T06:00:06;100549.38;;;5.40;76.00
53506;BME280;39388;50.936;6.848;2022-11-20T06:02:37;100551.94;;;5.41;75.79
53506;BME280;39388;50.936;6.848;2022-11-20T06:05:07;100550.25;;;5.40;76.04
53506;BME280;39388;50.936;6.848;2022-11-20T06:07:37;100548.53;;;5.39;75.41
53506;BME280;39388;50.936;6.848;2022-11-20T06:10:08;100549.38;;;5.40;75.95
53506;BME280;39388;50.936;6.848;2022-11-20T06:12:38;100546.88;;;5.43;75.25
53506;BME280;39388;50.936;6.848;2022-11-20T06:15:09;100546.81;;;5.41;75.61
53506;BME280;39388;50.936;6.848;2022-11-20T06:17:39;100542.59;;;5.42;75.86
53506;BME280;39388;50.936;6.848;2022-11-20T06:20:09;100541.75;;;5.43;75.84
53506;BME280;39388;50.936;6.848;2022-11-20T06:22:40;100540.91;;;5.44;75.70
53506;BME280;39388;50.936;6.848;2022-11-20T06:25:10;100541.75;;;5.44;75.29
53506;BME280;39388;50.936;6.848;2022-11-20T06:27:40;100535.75;;;5.42;76.08
53506;BME280;39388;50.936;6.848;2022-11-20T06:30:10;100540.03;;;5.42;75.24
53506;BME280;39388;50.936;6.848;2022-11-20T06:32:41;100536.59;;;5.40;75.99
53506;BME280;39388;50.936;6.848;2022-11-20T06:35:11;100540.81;;;5.36;75.65
53506;BME280;39388;50.936;6.848;2022-11-20T06:37:42;100545.91;;;5.36;76.45
53506;BME280;39388;50.936;6.848;2022-11-20T06:40:12;100548.47;;;5.36;75.91
53506;BME280;39388;50.936;6.848;2022-11-20T06:42:42;100556.09;;;5.34;76.21
53506;BME280;39388;50.936;6.848;2022-11-20T06:45:12;100548.44;;;5.34;76.45
53506;BME280;39388;50.936;6.848;2022-11-20T06:47:43;100556.97;;;5.35;76.53
53506;BME280;39388;50.936;6.848;2022-11-20T06:50:13;100549.31;;;5.36;75.68
53506;BME280;39388;50.936;6.848;2022-11-20T06:52:43;100557.03;;;5.38;76.11
53506;BME280;39388;50.936;6.848;2022-11-20T06:55:13;100552.75;;;5.38;75.89
53506;BME280;39388;50.936;6.848;2022-11-20T06:57:44;100557.88;;;5.38;76.18
53506;BME280;39388;50.936;6.848;2022-11-20T07:00:14;100560.47;;;5.40;75.92
53506;BME280;39388;50.936;6.848;2022-11-20T07:02:44;100558.72;;;5.37;75.66
53506;BME280;39388;50.936;6.848;2022-11-20T07:05:15;100573.22;;;5.38;76.24
53506;BME280;39388;50.936;6.848;2022-11-20T07:07:45;100575.81;;;5.40;76.77
53506;BME280;39388;50.936;6.848;2022-11-20T07:10:15;100576.72;;;5.44;75.81
53506;BME280;39388;50.936;6.848;2022-11-20T07:12:49;100569.94;;;5.46;75.89
53506;BME280;39388;50.936;6.848;2022-11-20T07:15:20;100577.59;;;5.47;76.08
53506;BME280;39388;50.936;6.848;2022-11-20T07:17:50;100578.44;;;5.48;76.62
53506;BME280;39388;50.936;6.848;2022-11-20T07:20:21;100582.78;;;5.50;76.54
53506;BME280;39388;50.936;6.848;2022-11-20T07:22:54;100583.66;;;5.52;76.18
53506;BME280;39388;50.936;6.848;2022-11-20T07:25:26;100584.53;;;5.55;76.21
53506;BME280;39388;50.936;6.848;2022-11-20T07:27:57;100593.91;;;5.56;76.22
53506;BME280;39388;50.936;6.848;2022-11-20T07:30:27;100593.06;;;5.55;76.98
53506;BME280;39388;50.936;6.848;2022-11-20T07:32:58;100591.38;;;5.57;76.46
53506;BME280;39388;50.936;6.848;2022-11-20T07:35:28;100590.53;;;5.58;75.63
53506;BME280;39388;50.936;6.848;2022-11-20T07:37:58;100589.72;;;5.61;76.28
53506;BME280;39388;50.936;6.848;2022-11-20T07:40:29;100592.28;;;5.61;76.42
53506;BME280;39388;50.936;6.848;2022-11-20T07:42:59;100591.44;;;5.62;76.11
53506;BME280;39388;50.936;6.848;2022-11-20T07:45:29;100581.22;;;5.62;76.17
53506;BME280;39388;50.936;6.848;2022-11-20T07:47:59;100577.81;;;5.64;76.15
53506;BME280;39388;50.936;6.848;2022-11-20T07:50:30;100576.16;;;5.66;76.13
53506;BME280;39388;50.936;6.848;2022-11-20T07:53:01;100575.31;;;5.67;76.06
53506;BME280;39388;50.936;6.848;2022-11-20T07:55:32;100577.91;;;5.71;76.60
53506;BME280;39388;50.936;6.848;2022-11-20T07:58:02;100577.09;;;5.73;76.30
53506;BME280;39388;50.936;6.848;2022-11-20T08:00:33;100582.25;;;5.75;76.72
53506;BME280;39388;50.936;6.848;2022-11-20T08:03:03;100576.31;;;5.79;76.71
53506;BME280;39388;50.936;6.848;2022-11-20T08:05:34;100580.63;;;5.81;76.33
53506;BME280;39388;50.936;6.848;2022-11-20T08:08:04;100584.91;;;5.84;76.86
53506;BME280;39388;50.936;6.848;2022-11-20T08:10:35;100571.28;;;5.85;76.61
53506;BME280;39388;50.936;6.848;2022-11-20T08:13:05;100572.16;;;5.87;75.81
53506;BME280;39388;50.936;6.848;2022-11-20T08:15:54;100577.31;;;5.90;76.31
53506;BME280;39388;50.936;6.848;2022-11-20T08:18:24;100579.00;;;5.91;76.79
53506;BME280;39388;50.936;6.848;2022-11-20T08:20:54;100556.75;;;5.86;76.67
53506;BME280;39388;50.936;6.848;2022-11-20T08:23:24;100576.53;;;5.99;76.54
53506;BME280;39388;50.936;6.848;2022-11-20T08:25:55;100572.31;;;6.01;76.52
53506;BME280;39388;50.936;6.848;2022-11-20T08:28:25;100575.78;;;6.06;76.55
53506;BME280;39388;50.936;6.848;2022-11-20T08:30:59;100570.72;;;6.11;76.33
53506;BME280;39388;50.936;6.848;2022-11-20T08:33:29;100569.06;;;6.18;76.25
53506;BME280;39388;50.936;6.848;2022-11-20T08:36:00;100574.25;;;6.22;76.56
53506;BME280;39388;50.936;6.848;2022-11-20T08:38:31;100578.56;;;6.28;76.18
53506;BME280;39388;50.936;6.848;2022-11-20T08:41:03;100580.28;;;6.29;75.93
53506;BME280;39388;50.936;6.848;2022-11-20T08:43:56;100576.84;;;6.25;76.37
53506;BME280;39388;50.936;6.848;2022-11-20T08:46:27;100576.78;;;6.22;76.18
53506;BME280;39388;50.936;6.848;2022-11-20T08:48:58;100583.59;;;6.20;76.04
53506;BME280;39388;50.936;6.848;2022-11-20T08:51:28;100581.03;;;6.20;76.46
53506;BME280;39388;50.936;6.848;2022-11-20T08:53:59;100577.63;;;6.20;76.23
53506;BME280;39388;50.936;6.848;2022-11-20T08:56:29;100575.91;;;6.19;76.52
53506;BME280;39388;50.936;6.848;2022-11-20T08:58:59;100577.63;;;6.18;76.03
53506;BME280;39388;50.936;6.848;2022-11-20T09:01:30;100575.16;;;6.26;76.80
53506;BME280;39388;50.936;6.848;2022-11-20T09:04:00;100571.84;;;6.38;76.68
53506;BME280;39388;50.936;6.848;2022-11-20T09:06:30;100573.66;;;6.50;76.33
53506;BME280;39388;50.936;6.848;2022-11-20T09:09:00;100570.28;;;6.52;75.69
53506;BME280;39388;50.936;6.848;2022-11-20T09:11:31;100572.00;;;6.52;76.43
53506;BME280;39388;50.936;6.848;2022-11-20T09:14:01;100566.88;;;6.52;75.94
53506;BME280;39388;50.936;6.848;2022-11-20T09:16:32;100570.31;;;6.55;76.09
53506;BME280;39388;50.936;6.848;2022-11-20T09:19:02;100567.75;;;6.55;76.02
53506;BME280;39388;50.936;6.848;2022-11-20T09:21:33;100566.91;;;6.55;75.76
53506;BME280;39388;50.936;6.848;2022-11-20T09:24:04;100559.22;;;6.58;76.07
53506;BME280;39388;50.936;6.848;2022-11-20T09:26:34;100556.69;;;6.61;75.68
53506;BME280;39388;50.936;6.848;2022-11-20T09:29:04;100550.72;;;6.64;75.50
53506;BME280;39388;50.936;6.848;2022-11-20T09:31:35;100554.16;;;6.64;76.08
53506;BME280;39388;50.936;6.848;2022-11-20T09:34:05;100549.06;;;6.70;75.98
53506;BME280;39388;50.936;6.848;2022-11-20T09:36:35;100551.72;;;6.81;75.58
53506;BME280;39388;50.936;6.848;2022-11-20T09:39:05;100551.81;;;6.94;75.86
53506;BME280;39388;50.936;6.848;2022-11-20T09:41:40;100539.03;;;6.98;74.98
53506;BME280;39388;50.936;6.848;2022-11-20T09:46:57;100553.56;;;6.98;75.47
53506;BME280;39388;50.936;6.848;2022-11-20T09:54:56;100541.53;;;6.89;75.51
53506;BME280;39388;50.936;6.848;2022-11-20T09:57:32;100545.81;;;6.90;76.15
53506;BME280;39388;50.936;6.848;2022-11-20T10:00:05;100549.22;;;6.89;75.93
53506;BME280;39388;50.936;6.848;2022-11-20T10:02:43;100551.78;;;6.87;75.84
53506;BME280;39388;50.936;6.848;2022-11-20T10:05:27;100553.47;;;6.87;75.54
53506;BME280;39388;50.936;6.848;2022-11-20T10:26:26;100527.88;;;6.91;76.32
53506;BME280;39388;50.936;6.848;2022-11-20T10:31:37;100476.63;;;6.91;76.21
53506;BME280;39388;50.936;6.848;2022-11-20T10:34:17;100491.28;;;7.10;75.72
53506;BME280;39388;50.936;6.848;2022-11-20T10:36:52;100488.72;;;7.14;76.24
53506;BME280;39388;50.936;6.848;2022-11-20T10:42:15;100493.03;;;7.20;75.91
53506;BME280;39388;50.936;6.848;2022-11-20T10:44:49;100492.19;;;7.22;75.44
53506;BME280;39388;50.936;6.848;2022-11-20T10:47:31;100485.34;;;7.25;75.69
53506;BME280;39388;50.936;6.848;2022-11-20T10:50:02;100482.81;;;7.28;75.60
53506;BME280;39388;50.936;6.848;2022-11-20T10:52:48;100475.13;;;7.26;75.92
53506;BME280;39388;50.936;6.848;2022-11-20T10:58:40;100471.66;;;7.21;75.99
53506;BME280;39388;50.936;6.848;2022-11-20T11:00:44;100470.81;;;7.22;75.97
53506;BME280;39388;50.936;6.848;2022-11-20T11:03:25;100470.81;;;7.22;75.81
53506;BME280;39388;50.936;6.848;2022-11-20T11:08:38;100462.25;;;7.18;75.82
53506;BME280;39388;50.936;6.848;2022-11-20T11:13:45;100454.53;;;7.14;75.98
53506;BME280;39388;50.936;6.848;2022-11-20T11:16:20;100440.00;;;7.16;76.45
53506;BME280;39388;50.936;6.848;2022-11-20T11:18:51;100405.78;;;7.03;76.47
53506;BME280;39388;50.936;6.848;2022-11-20T11:21:22;100439.22;;;7.31;76.39
53506;BME280;39388;50.936;6.848;2022-11-20T11:24:00;100442.69;;;7.38;75.93
53506;BME280;39388;50.936;6.848;2022-11-20T11:26:31;100433.31;;;7.44;75.74
53506;BME280;39388;50.936;6.848;2022-11-20T11:29:03;100433.31;;;7.46;75.51
53506;BME280;39388;50.936;6.848;2022-11-20T11:31:34;100432.47;;;7.48;75.65
53506;BME280;39388;50.936;6.848;2022-11-20T11:34:05;100411.03;;;7.37;75.93
53506;BME280;39388;50.936;6.848;2022-11-20T11:36:35;100418.75;;;7.42;76.11
53506;BME280;39388;50.936;6.848;2022-11-20T11:39:08;100413.63;;;7.42;76.09
53506;BME280;39388;50.936;6.848;2022-11-20T11:41:41;100408.50;;;7.40;75.62
53506;BME280;39388;50.936;6.848;2022-11-20T11:47:19;100403.34;;;7.39;75.71
53506;BME280;39388;50.936;6.848;2022-11-20T11:53:09;100393.91;;;7.36;75.68
53506;BME280;39388;50.936;6.848;2022-11-20T11:55:44;100395.63;;;7.32;76.05
53506;BME280;39388;50.936;6.848;2022-11-20T12:01:20;100379.34;;;7.21;76.32
53506;BME280;39388;50.936;6.848;2022-11-20T12:06:42;100366.53;;;7.22;76.11
53506;BME280;39388;50.936;6.848;2022-11-20T12:09:13;100343.44;;;7.12;76.34
53506;BME280;39388;50.936;6.848;2022-11-20T12:11:45;100360.53;;;7.24;76.00
53506;BME280;39388;50.936;6.848;2022-11-20T12:14:35;100358.84;;;7.21;76.24
53506;BME280;39388;50.936;6.848;2022-11-20T12:17:08;100357.13;;;7.20;76.38
53506;BME280;39388;50.936;6.848;2022-11-20T12:19:40;100352.00;;;7.20;76.38
53506;BME280;39388;50.936;6.848;2022-11-20T12:24:51;100350.28;;;7.20;76.39
53506;BME280;39388;50.936;6.848;2022-11-20T12:27:43;100338.31;;;7.16;76.17
53506;BME280;39388;50.936;6.848;2022-11-20T12:30:19;100346.91;;;7.32;76.00
53506;BME280;39388;50.936;6.848;2022-11-20T12:38:40;100331.56;;;7.48;75.97
53506;BME280;39388;50.936;6.848;2022-11-20T12:50:17;100301.66;;;7.72;75.32
53506;BME280;39388;50.936;6.848;2022-11-20T12:58:08;100297.38;;;7.86;75.53
53506;BME280;39388;50.936;6.848;2022-11-20T13:00:43;100293.09;;;7.85;75.55
53506;BME280;39388;50.936;6.848;2022-11-20T13:08:48;100279.41;;;7.81;75.64
53506;BME280;39388;50.936;6.848;2022-11-20T13:11:33;100277.72;;;7.82;75.91
53506;BME280;39388;50.936;6.848;2022-11-20T13:14:07;100271.72;;;7.80;75.85
53506;BME280;39388;50.936;6.848;2022-11-20T13:16:50;100273.44;;;7.76;75.70
53506;BME280;39388;50.936;6.848;2022-11-20T13:19:21;100263.16;;;7.79;75.96
53506;BME280;39388;50.936;6.848;2022-11-20T13:21:52;100256.28;;;7.86;75.66
53506;BME280;39388;50.936;6.848;2022-11-20T13:24:24;100247.75;;;7.89;75.51
53506;BME280;39388;50.936;6.848;2022-11-20T13:29:40;100242.63;;;7.86;75.87
53506;BME280;39388;50.936;6.848;2022-11-20T13:32:19;100238.34;;;7.83;75.84
53506;BME280;39388;50.936;6.848;2022-11-20T13:34:54;100223.78;;;7.77;76.17
53506;BME280;39388;50.936;6.848;2022-11-20T13:37:35;100226.38;;;7.74;75.74
53506;BME280;39388;50.936;6.848;2022-11-20T13:45:25;100212.69;;;7.74;75.98
53506;BME280;39388;50.936;6.848;2022-11-20T13:48:01;100210.97;;;7.76;76.18
53506;BME280;39388;50.936;6.848;2022-11-20T14:01:21;100189.59;;;7.77;75.91
53506;BME280;39388;50.936;6.848;2022-11-20T14:03:52;100185.28;;;7.77;76.07
53506;BME280;39388;50.936;6.848;2022-11-20T14:06:33;100190.44;;;7.76;76.14
53506;BME280;39388;50.936;6.848;2022-11-20T14:09:04;100184.44;;;7.74;76.03
53506;BME280;39388;50.936;6.848;2022-11-20T14:11:34;100176.75;;;7.69;75.95
53506;BME280;39388;50.936;6.848;2022-11-20T14:14:18;100166.53;;;7.68;76.26
53506;BME280;39388;50.936;6.848;2022-11-20T14:16:49;100168.22;;;7.65;76.34
53506;BME280;39388;50.936;6.848;2022-11-20T14:21:54;100148.56;;;7.68;76.12
53506;BME280;39388;50.936;6.848;2022-11-20T14:24:25;100144.25;;;7.68;76.32
53506;BME280;39388;50.936;6.848;2022-11-20T14:26:55;100147.69;;;7.70;76.24
53506;BME280;39388;50.936;6.848;2022-11-20T14:29:29;100143.41;;;7.71;76.13
53506;BME280;39388;50.936;6.848;2022-11-20T14:31:59;100146.81;;;7.70;76.17
53506;BME280;39388;50.936;6.848;2022-11-20T14:34:31;100134.88;;;7.69;76.44
53506;BME280;39388;50.936;6.848;2022-11-20T14:37:03;100139.13;;;7.68;76.43
53506;BME280;39388;50.936;6.848;2022-11-20T14:39:35;100124.59;;;7.69;76.33
53506;BME280;39388;50.936;6.848;2022-11-20T14:42:38;100116.03;;;7.70;76.45
53506;BME280;39388;50.936;6.848;2022-11-20T14:45:02;100112.63;;;7.68;76.53
53506;BME280;39388;50.936;6.848;2022-11-20T14:47:32;100108.34;;;7.66;76.28
53506;BME280;39388;50.936;6.848;2022-11-20T14:50:03;100108.34;;;7.68;76.27
53506;BME280;39388;50.936;6.848;2022-11-20T14:52:38;100107.47;;;7.66;76.75
53506;BME280;39388;50.936;6.848;2022-11-20T14:55:13;100104.91;;;7.66;76.77
53506;BME280;39388;50.936;6.848;2022-11-20T14:57:43;100100.66;;;7.63;76.36
53506;BME280;39388;50.936;6.848;2022-11-20T15:00:24;100098.94;;;7.64;76.51
53506;BME280;39388;50.936;6.848;2022-11-20T15:02:54;100102.38;;;7.64;76.70
53506;BME280;39388;50.936;6.848;2022-11-20T15:05:26;100092.09;;;7.63;76.65
53506;BME280;39388;50.936;6.848;2022-11-20T15:08:13;100098.94;;;7.64;76.41
53506;BME280;39388;50.936;6.848;2022-11-20T15:10:45;100095.50;;;7.65;76.60
53506;BME280;39388;50.936;6.848;2022-11-20T15:13:24;100095.50;;;7.65;76.38
53506;BME280;39388;50.936;6.848;2022-11-20T15:15:57;100101.50;;;7.65;76.50
53506;BME280;39388;50.936;6.848;2022-11-20T15:18:31;100094.66;;;7.64;76.37
53506;BME280;39388;50.936;6.848;2022-11-20T15:21:03;100088.69;;;7.62;76.80